Time;durP1;ratioP1;P1;durP2;ratioP2;P2;SDS_P1;SDS_P2;PMS_P1;PMS_P2;Temp;Humidity;BMP_temperature;BMP_pressure;BME280_temperature;BME280_humidity;BME280_pressure;Samples;Min_cycle;Max_cycle;Signal;HPM_P1;HPM_P2
2023/03/21 00:00:44;;;;;;;41.20;21.80;;;8.90;99.90;;;;;;5096645;28;20044;-79
2023/03/21 00:03:13;;;;;;;40.35;20.10;;;8.90;99.90;;;;;;5096507;28;20372;-79
2023/03/21 00:05:40;;;;;;;50.30;22.60;;;8.90;99.90;;;;;;5096530;28;20123;-79
2023/03/21 00:08:06;;;;;;;42.33;22.23;;;8.90;99.90;;;;;;5096317;28;20047;-79
2023/03/21 00:10:31;;;;;;;42.60;22.15;;;9.10;99.90;;;;;;5096362;28;20043;-78
2023/03/21 00:12:57;;;;;;;38.90;22.25;;;8.90;99.90;;;;;;5096412;28;20047;-78
2023/03/21 00:15:28;;;;;;;39.88;21.33;;;8.80;99.90;;;;;;5096395;28;20090;-79
2023/03/21 00:18:02;;;;;;;48.13;22.77;;;9.40;99.90;;;;;;5096313;28;20051;-79
2023/03/21 00:20:29;;;;;;;40.13;21.35;;;8.90;99.90;;;;;;5096242;28;20051;-78
2023/03/21 00:22:55;;;;;;;41.20;22.50;;;8.90;99.90;;;;;;5096150;28;20105;-78
2023/03/21 00:25:21;;;;;;;41.13;21.55;;;8.90;99.90;;;;;;5096006;28;20478;-78
2023/03/21 00:27:46;;;;;;;36.85;20.73;;;8.90;99.90;;;;;;5096181;28;20040;-77
2023/03/21 00:30:12;;;;;;;45.67;21.65;;;9.30;99.90;;;;;;5096042;28;20040;-78
2023/03/21 00:32:38;;;;;;;47.78;21.80;;;8.90;99.90;;;;;;5095865;28;20150;-79
2023/03/21 00:35:04;;;;;;;41.25;21.90;;;9.00;99.90;;;;;;5095911;28;20044;-79
2023/03/21 00:37:29;;;;;;;37.72;20.67;;;8.90;99.90;;;;;;5095924;28;20044;-78
2023/03/21 00:39:55;;;;;;;45.20;20.88;;;8.90;99.90;;;;;;5078050;28;20476;-78
2023/03/21 00:42:21;;;;;;;40.80;21.02;;;8.90;99.90;;;;;;5095525;28;20040;-79
2023/03/21 00:44:46;;;;;;;44.42;20.58;;;8.90;99.90;;;;;;5096006;28;20048;-78
2023/03/21 00:47:12;;;;;;;40.80;21.48;;;9.40;99.90;;;;;;5077720;28;20487;-79
2023/03/21 00:49:39;;;;;;;36.05;19.77;;;9.00;99.90;;;;;;5096503;28;20139;-79
2023/03/21 00:52:09;;;;;;;38.50;21.83;;;9.00;99.90;;;;;;5095681;28;20093;-79
2023/03/21 00:54:36;;;;;;;50.58;23.20;;;8.90;99.90;;;;;;5095858;28;20038;-78
2023/03/21 00:57:02;;;;;;;42.25;20.73;;;8.90;99.90;;;;;;5095563;28;20048;-79
2023/03/21 00:59:28;;;;;;;55.45;24.20;;;8.90;99.90;;;;;;5095746;28;20101;-80
2023/03/21 01:01:54;;;;;;;47.03;23.17;;;9.40;99.90;;;;;;5095454;28;20051;-80
2023/03/21 01:04:25;;;;;;;41.17;22.35;;;9.00;99.90;;;;;;5095439;28;20082;-79
2023/03/21 01:06:52;;;;;;;41.63;23.10;;;9.00;99.90;;;;;;5095697;28;20047;-79
2023/03/21 01:09:20;;;;;;;45.28;23.60;;;9.00;99.90;;;;;;5095221;28;20147;-78
2023/03/21 01:11:46;;;;;;;43.65;23.27;;;9.00;99.90;;;;;;5095175;28;20044;-79
2023/03/21 01:14:14;;;;;;;46.27;22.37;;;9.00;99.90;;;;;;5095184;28;20040;-79
2023/03/21 01:16:40;;;;;;;43.00;23.48;;;9.00;99.90;;;;;;5095205;28;20044;-81
2023/03/21 01:19:08;;;;;;;55.60;25.45;;;9.00;99.90;;;;;;5095154;28;20044;-78
2023/03/21 01:21:35;;;;;;;43.60;24.10;;;9.50;99.90;;;;;;5094608;28;20136;-79
2023/03/21 01:24:01;;;;;;;46.97;23.90;;;9.00;99.90;;;;;;5095236;28;20094;-79
2023/03/21 01:26:27;;;;;;;55.35;25.00;;;9.00;99.90;;;;;;5093776;28;20134;-80
2023/03/21 01:28:53;;;;;;;42.33;22.17;;;9.30;99.90;;;;;;5094850;28;20081;-79
2023/03/21 01:31:19;;;;;;;44.70;24.27;;;9.10;99.90;;;;;;5094785;28;20048;-79
2023/03/21 01:33:45;;;;;;;44.10;23.17;;;9.00;99.90;;;;;;5094755;28;20040;-79
2023/03/21 01:36:23;;;;;;;38.80;22.02;;;9.10;99.90;;;;;;5094683;28;20052;-80
2023/03/21 01:38:49;;;;;;;47.47;23.85;;;9.10;99.90;;;;;;5093934;28;20047;-79
2023/03/21 01:41:37;;;;;;;44.53;22.77;;;9.10;99.90;;;;;;5093752;28;20036;-80
2023/03/21 01:44:03;;;;;;;42.55;22.55;;;9.10;99.90;;;;;;5093506;28;20084;-80
2023/03/21 01:46:43;;;;;;;39.33;21.50;;;9.10;99.90;;;;;;5093546;28;20086;-80
2023/03/21 01:49:24;;;;;;;41.88;23.42;;;9.10;99.90;;;;;;5094705;28;20142;-80
2023/03/21 01:51:59;;;;;;;46.40;22.38;;;9.10;99.90;;;;;;5094360;28;20051;-80
2023/03/21 01:54:33;;;;;;;40.05;20.98;;;9.10;99.90;;;;;;5093667;28;20083;-79
2023/03/21 01:57:04;;;;;;;42.03;21.08;;;9.10;99.90;;;;;;5093543;28;20048;-80
2023/03/21 01:59:39;;;;;;;33.72;19.17;;;9.10;99.90;;;;;;5093283;28;20040;-80
2023/03/21 02:02:10;;;;;;;40.97;21.10;;;9.20;99.90;;;;;;5076473;28;20048;-80
2023/03/21 02:04:37;;;;;;;37.80;19.70;;;9.50;99.90;;;;;;5094249;28;20071;-80
2023/03/21 02:07:13;;;;;;;40.55;19.58;;;9.20;99.90;;;;;;5094593;28;20096;-80
2023/03/21 02:09:42;;;;;;;37.92;19.98;;;9.50;99.90;;;;;;5094021;28;20047;-80
2023/03/21 02:12:08;;;;;;;37.47;18.65;;;9.20;99.90;;;;;;5094475;28;20044;-79
2023/03/21 02:14:36;;;;;;;36.10;19.88;;;9.20;99.90;;;;;;5094159;28;20040;-80
2023/03/21 02:17:26;;;;;;;36.75;18.92;;;9.20;99.90;;;;;;5093984;28;20119;-79
2023/03/21 02:20:00;;;;;;;40.42;20.52;;;9.20;99.90;;;;;;5093159;28;20048;-80
2023/03/21 02:22:37;;;;;;;31.38;17.85;;;9.20;99.90;;;;;;5093591;28;20460;-79
2023/03/21 02:25:11;;;;;;;35.13;18.38;;;9.20;99.90;;;;;;5093136;28;20375;-80
2023/03/21 02:27:49;;;;;;;36.50;17.95;;;9.20;99.90;;;;;;5093539;28;20394;-80
2023/03/21 02:30:47;;;;;;;29.98;17.52;;;9.20;99.90;;;;;;5092745;28;20046;-79
2023/03/21 02:33:58;;;;;;;27.88;16.02;;;9.20;99.90;;;;;;5093652;28;20044;-79
2023/03/21 02:36:31;;;;;;;28.77;17.67;;;9.20;99.90;;;;;;5094128;28;20050;-79
2023/03/21 02:39:08;;;;;;;26.35;16.05;;;9.30;99.90;;;;;;5093927;28;20535;-79
2023/03/21 02:41:44;;;;;;;26.90;14.60;;;9.30;99.90;;;;;;5093728;28;20051;-80
2023/03/21 02:44:25;;;;;;;28.20;16.05;;;9.30;99.90;;;;;;5093714;28;20036;-80
2023/03/21 02:47:00;;;;;;;26.77;15.00;;;9.20;99.90;;;;;;5093472;28;20050;-80
2023/03/21 02:49:42;;;;;;;29.85;15.95;;;9.30;99.90;;;;;;5093772;28;20060;-80
2023/03/21 02:52:18;;;;;;;23.92;14.02;;;9.20;99.90;;;;;;5093696;28;20105;-79
2023/03/21 02:54:47;;;;;;;26.45;14.95;;;9.30;99.90;;;;;;5093601;28;20040;-79
2023/03/21 02:57:15;;;;;;;25.25;15.23;;;9.30;99.90;;;;;;5094025;28;20048;-79
2023/03/21 02:59:41;;;;;;;24.63;14.65;;;9.40;99.90;;;;;;5093592;28;20055;-79
2023/03/21 03:02:07;;;;;;;23.25;13.57;;;9.30;99.90;;;;;;5093731;28;20048;-80
2023/03/21 03:04:33;;;;;;;23.17;13.40;;;9.60;99.90;;;;;;5092555;28;20040;-79
2023/03/21 03:07:16;;;;;;;26.05;13.63;;;9.30;99.90;;;;;;5093629;28;20044;-79
2023/03/21 03:10:01;;;;;;;24.40;13.60;;;9.30;99.90;;;;;;5093654;28;20084;-80
2023/03/21 03:13:00;;;;;;;22.75;13.05;;;9.30;99.90;;;;;;5093904;28;20381;-79
2023/03/21 03:15:28;;;;;;;23.42;14.13;;;9.30;99.90;;;;;;5092289;28;20044;-79
2023/03/21 03:18:12;;;;;;;26.85;14.07;;;9.30;99.90;;;;;;5093370;28;20066;-79
2023/03/21 03:21:06;;;;;;;27.00;15.30;;;9.30;99.90;;;;;;5093684;28;20047;-80
2023/03/21 03:23:45;;;;;;;23.92;13.65;;;9.30;99.90;;;;;;5092070;28;20043;-79
2023/03/21 03:26:19;;;;;;;25.67;14.38;;;9.30;99.90;;;;;;5091867;28;20051;-79
2023/03/21 03:28:52;;;;;;;24.83;14.07;;;9.30;99.90;;;;;;5092282;28;20040;-79
2023/03/21 03:31:24;;;;;;;25.00;14.68;;;9.30;99.90;;;;;;5095666;28;20050;-79
2023/03/21 03:33:53;;;;;;;29.50;15.75;;;9.30;99.90;;;;;;5097403;28;20127;-79
2023/03/21 03:36:22;;;;;;;23.95;14.70;;;9.20;99.90;;;;;;5079226;28;20480;-78
2023/03/21 03:38:49;;;;;;;25.85;15.55;;;9.20;99.90;;;;;;5095948;28;20054;-80
2023/03/21 03:41:24;;;;;;;31.27;16.60;;;9.50;99.90;;;;;;5096660;28;20097;-79
2023/03/21 03:43:54;;;;;;;34.58;18.23;;;9.20;99.90;;;;;;5096967;28;20051;-80
2023/03/21 03:46:32;;;;;;;30.20;17.55;;;9.20;99.90;;;;;;5096032;28;20040;-80
2023/03/21 03:49:03;;;;;;;32.35;16.88;;;9.20;99.90;;;;;;5096786;28;20097;-79
2023/03/21 03:51:41;;;;;;;34.65;17.30;;;9.20;99.90;;;;;;5096934;28;20050;-80
2023/03/21 03:54:12;;;;;;;32.08;17.38;;;9.30;99.90;;;;;;5095733;28;20044;-79
2023/03/21 03:56:39;;;;;;;32.10;17.73;;;9.30;99.90;;;;;;5096878;28;20036;-79
2023/03/21 03:59:06;;;;;;;30.50;17.27;;;9.20;99.90;;;;;;5095231;28;20492;-79
2023/03/21 04:01:32;;;;;;;33.45;17.08;;;9.20;99.90;;;;;;5096601;28;20044;-79
2023/03/21 04:03:59;;;;;;;33.67;18.30;;;9.20;99.90;;;;;;5096310;28;20044;-79
2023/03/21 04:06:27;;;;;;;31.47;18.00;;;9.20;99.90;;;;;;5096630;28;20058;-80
2023/03/21 04:08:55;;;;;;;35.63;18.15;;;9.20;99.90;;;;;;5096216;28;20079;-79
2023/03/21 04:11:21;;;;;;;36.15;19.30;;;9.30;99.90;;;;;;5096399;28;20055;-79
2023/03/21 04:13:47;;;;;;;33.92;18.73;;;9.20;99.90;;;;;;5096451;28;20055;-79
2023/03/21 04:16:13;;;;;;;35.00;18.60;;;9.20;99.90;;;;;;5094851;28;20036;-79
2023/03/21 04:18:40;;;;;;;31.02;18.50;;;9.20;99.90;;;;;;5095992;28;20035;-79
2023/03/21 04:21:12;;;;;;;35.92;18.98;;;9.20;99.90;;;;;;5078452;28;20044;-80
2023/03/21 04:23:39;;;;;;;38.60;19.40;;;9.20;99.90;;;;;;5096139;28;20135;-79
2023/03/21 04:26:05;;;;;;;33.78;18.63;;;9.40;99.90;;;;;;5096297;28;20048;-81
2023/03/21 04:28:32;;;;;;;40.97;19.83;;;9.10;99.90;;;;;;5096102;28;20040;-79
2023/03/21 04:30:58;;;;;;;;;;;9.10;99.90;;;;;;5096408;28;20104;-80
2023/03/21 04:33:24;;;;;;;35.97;19.33;;;9.40;99.90;;;;;;5096054;28;20360;-79
2023/03/21 04:35:55;;;;;;;39.25;19.63;;;9.10;99.90;;;;;;5096015;28;20480;-79
2023/03/21 04:38:22;;;;;;;32.90;19.13;;;9.10;99.90;;;;;;5095980;28;20408;-80
2023/03/21 04:40:48;;;;;;;39.92;20.10;;;9.10;99.90;;;;;;5094455;28;20400;-80
2023/03/21 04:43:13;;;;;;;42.00;20.83;;;9.10;99.90;;;;;;5094266;28;20047;-78
2023/03/21 04:45:39;;;;;;;40.40;19.73;;;9.10;99.90;;;;;;5095286;28;20123;-80
2023/03/21 04:48:05;;;;;;;38.63;19.17;;;9.70;99.90;;;;;;5094781;28;20054;-80
2023/03/21 04:50:31;;;;;;;39.10;19.27;;;9.10;99.90;;;;;;5095696;28;20040;-79
2023/03/21 04:52:56;;;;;;;35.05;19.17;;;9.10;99.90;;;;;;5077956;28;20052;-79
2023/03/21 04:55:23;;;;;;;43.85;20.75;;;9.10;99.90;;;;;;5094446;28;20039;-80
2023/03/21 04:57:49;;;;;;;;;;;9.10;99.90;;;;;;5096116;28;20040;-79
2023/03/21 05:00:15;;;;;;;39.08;19.33;;;9.10;99.90;;;;;;5094239;28;19920;-81
2023/03/21 05:02:41;;;;;;;41.35;19.50;;;9.10;99.90;;;;;;5095590;28;20078;-80
2023/03/21 05:05:10;;;;;;;35.60;18.58;;;9.10;99.90;;;;;;5094293;28;20052;-80
2023/03/21 05:07:40;;;;;;;40.47;19.52;;;9.10;99.90;;;;;;5094710;28;20085;-80
2023/03/21 05:10:07;;;;;;;38.13;20.35;;;9.20;99.90;;;;;;5094067;28;20085;-80
2023/03/21 05:12:32;;;;;;;;;;;9.10;99.90;;;;;;5095636;28;20048;-79
2023/03/21 05:14:58;;;;;;;35.88;18.65;;;9.10;99.90;;;;;;5094910;28;19920;-79
2023/03/21 05:17:27;;;;;;;37.58;18.13;;;9.10;99.90;;;;;;5095140;28;20132;-80
2023/03/21 05:19:55;;;;;;;37.85;18.80;;;9.10;99.90;;;;;;5094054;28;20097;-80
2023/03/21 05:22:22;;;;;;;40.08;18.60;;;9.10;99.90;;;;;;5095130;28;20047;-79
2023/03/21 05:24:49;;;;;;;36.78;18.38;;;9.60;99.90;;;;;;5094991;28;20433;-81
2023/03/21 05:27:34;;;;;;;40.53;18.88;;;9.00;99.90;;;;;;5093699;28;20066;-79
2023/03/21 05:30:10;;;;;;;34.05;18.05;;;9.00;99.90;;;;;;5094610;28;20047;-80
2023/03/21 05:32:36;;;;;;;40.20;18.43;;;9.00;99.90;;;;;;5094984;28;20540;-80
2023/03/21 05:35:02;;;;;;;37.88;17.73;;;9.70;99.90;;;;;;5093868;28;20044;-80
2023/03/21 05:37:28;;;;;;;39.43;18.63;;;9.00;99.90;;;;;;5094767;28;20059;-80
2023/03/21 05:39:54;;;;;;;37.65;19.48;;;9.10;99.90;;;;;;5094696;28;20278;-81
2023/03/21 05:42:19;;;;;;;38.90;19.17;;;9.00;99.90;;;;;;5094732;28;20105;-79
2023/03/21 05:44:46;;;;;;;40.33;17.10;;;9.00;99.90;;;;;;5095111;28;20048;-81
2023/03/21 05:47:13;;;;;;;32.03;18.23;;;9.00;99.90;;;;;;5094819;28;20070;-80
2023/03/21 05:49:38;;;;;;;;;;;8.50;99.90;;;;;;5094628;28;20408;-80
2023/03/21 05:52:04;;;;;;;35.70;18.33;;;9.00;99.90;;;;;;5094397;28;19920;-80
2023/03/21 05:54:30;;;;;;;34.53;17.83;;;9.00;99.90;;;;;;5092694;28;20048;-80
2023/03/21 05:56:55;;;;;;;32.05;17.00;;;9.50;99.90;;;;;;5094382;28;20063;-80
2023/03/21 05:59:21;;;;;;;31.92;17.98;;;9.00;99.90;;;;;;5093144;28;20040;-79
2023/03/21 06:01:47;;;;;;;37.45;17.58;;;9.00;99.90;;;;;;5094035;28;20040;-80
2023/03/21 06:04:12;;;;;;;30.77;15.93;;;9.00;99.90;;;;;;5093032;28;20039;-80
2023/03/21 06:06:38;;;;;;;30.75;16.67;;;9.20;99.90;;;;;;5094216;28;20391;-80
2023/03/21 06:09:05;;;;;;;32.55;16.40;;;9.00;99.90;;;;;;5075909;28;20048;-80
2023/03/21 06:11:33;;;;;;;34.67;16.75;;;9.00;99.90;;;;;;5094201;28;20063;-78
2023/03/21 06:13:59;;;;;;;30.90;16.23;;;9.00;99.90;;;;;;5094278;28;20040;-83
2023/03/21 06:16:24;;;;;;;31.30;17.15;;;9.00;99.90;;;;;;5092965;28;20044;-77
2023/03/21 06:18:50;;;;;;;26.92;15.57;;;9.60;99.90;;;;;;5092899;28;20048;-79
2023/03/21 06:21:16;;;;;;;27.73;14.95;;;9.00;99.90;;;;;;5094056;28;20055;-78
2023/03/21 06:23:41;;;;;;;28.95;14.57;;;9.00;99.90;;;;;;5093730;28;20138;-78
2023/03/21 06:26:07;;;;;;;26.05;14.70;;;9.10;99.90;;;;;;5094636;28;20044;-78
2023/03/21 06:28:33;;;;;;;28.17;16.08;;;9.10;99.90;;;;;;5093835;28;20048;-78
2023/03/21 06:30:58;;;;;;;32.30;15.60;;;9.00;99.90;;;;;;5093955;28;20044;-79
2023/03/21 06:33:24;;;;;;;32.38;15.48;;;9.10;99.90;;;;;;5093951;28;20185;-78
2023/03/21 06:35:54;;;;;;;29.03;15.53;;;9.30;99.90;;;;;;5093530;28;20053;-80
2023/03/21 06:38:20;;;;;;;31.30;16.80;;;9.40;99.90;;;;;;5093771;28;20622;-79
2023/03/21 06:40:46;;;;;;;32.78;16.83;;;9.10;99.90;;;;;;5094145;28;20066;-78
2023/03/21 06:43:12;;;;;;;26.17;14.67;;;9.10;99.90;;;;;;5093207;28;20509;-78
2023/03/21 06:45:38;;;;;;;32.93;16.83;;;9.10;99.90;;;;;;5093816;28;20131;-79
2023/03/21 06:48:04;;;;;;;29.83;16.02;;;9.10;99.90;;;;;;5093322;28;20139;-78
2023/03/21 06:50:29;;;;;;;30.20;16.17;;;9.10;99.90;;;;;;5092643;28;20494;-80
2023/03/21 06:52:56;;;;;;;29.70;15.95;;;9.20;99.90;;;;;;5093622;28;20055;-80
2023/03/21 06:55:25;;;;;;;29.95;15.65;;;9.20;99.90;;;;;;5092320;28;20499;-80
2023/03/21 06:57:55;;;;;;;30.33;15.43;;;9.40;99.90;;;;;;5094359;28;20055;-78
2023/03/21 07:00:22;;;;;;;27.80;15.35;;;9.20;99.90;;;;;;5097257;28;20051;-89
2023/03/21 07:02:48;;;;;;;30.33;15.48;;;9.20;99.90;;;;;;5078317;28;20100;-83
2023/03/21 07:05:14;;;;;;;32.67;14.82;;;9.20;99.90;;;;;;5095394;28;20503;-79
2023/03/21 07:07:40;;;;;;;27.30;14.47;;;9.30;99.90;;;;;;5097625;28;20036;-79
2023/03/21 07:10:06;;;;;;;22.33;12.98;;;9.20;99.90;;;;;;5097294;28;20772;-79
2023/03/21 07:12:34;;;;;;;24.60;12.65;;;9.30;99.90;;;;;;5095064;28;20083;-79
2023/03/21 07:15:01;;;;;;;27.00;14.50;;;9.30;99.90;;;;;;5096686;28;20144;-79
2023/03/21 07:17:26;;;;;;;24.58;13.82;;;9.30;99.90;;;;;;5097501;28;20507;-79
2023/03/21 07:19:52;;;;;;;25.50;12.60;;;9.30;99.90;;;;;;5097401;28;20032;-79
2023/03/21 07:22:18;;;;;;;24.33;12.63;;;9.30;99.90;;;;;;5096349;28;20048;-79
2023/03/21 07:24:47;;;;;;;21.87;12.13;;;10.00;99.90;;;;;;5097319;28;20097;-79
2023/03/21 07:27:13;;;;;;;24.23;13.38;;;9.30;99.90;;;;;;5097254;28;20052;-79
2023/03/21 07:29:39;;;;;;;22.13;11.70;;;9.30;99.90;;;;;;5097443;28;20486;-79
2023/03/21 07:32:05;;;;;;;25.30;13.27;;;9.50;99.90;;;;;;5097237;28;20488;-79
2023/03/21 07:34:32;;;;;;;18.75;11.82;;;9.30;99.90;;;;;;5097286;28;20051;-79
2023/03/21 07:36:59;;;;;;;21.20;13.10;;;9.30;99.90;;;;;;5097115;28;20048;-79
2023/03/21 07:39:25;;;;;;;22.35;12.65;;;9.30;99.90;;;;;;5097147;28;20040;-79
2023/03/21 07:41:54;;;;;;;26.17;13.30;;;9.50;99.90;;;;;;5096314;28;20056;-79
2023/03/21 07:44:23;;;;;;;22.25;12.10;;;9.40;99.90;;;;;;5097019;28;20055;-79
2023/03/21 07:46:49;;;;;;;24.20;12.70;;;9.30;99.90;;;;;;5095810;28;20480;-79
2023/03/21 07:49:15;;;;;;;21.63;12.43;;;9.30;99.90;;;;;;5096393;28;20059;-79
2023/03/21 07:51:40;;;;;;;21.58;11.98;;;9.30;99.90;;;;;;5081180;28;20396;-79
2023/03/21 07:54:06;;;;;;;23.45;12.30;;;9.30;99.90;;;;;;5075367;28;20507;-79
2023/03/21 07:56:31;;;;;;;20.15;12.82;;;9.30;99.90;;;;;;5074873;28;20559;-79
2023/03/21 07:58:58;;;;;;;21.50;11.82;;;9.30;99.90;;;;;;5076512;28;20041;-79
2023/03/21 08:01:24;;;;;;;20.42;11.95;;;9.40;99.90;;;;;;5076369;28;20053;-79
2023/03/21 08:03:52;;;;;;;22.67;12.40;;;9.30;99.90;;;;;;5076445;28;20044;-79
2023/03/21 08:06:21;;;;;;;23.05;11.95;;;9.40;99.90;;;;;;5075935;28;20408;-79
2023/03/21 08:08:47;;;;;;;23.08;12.73;;;9.30;99.90;;;;;;5076276;28;20041;-79
2023/03/21 08:11:14;;;;;;;19.92;11.90;;;9.30;99.90;;;;;;5076550;28;20101;-79
2023/03/21 08:13:40;;;;;;;24.77;12.50;;;9.30;99.90;;;;;;5076047;28;20114;-79
2023/03/21 08:16:06;;;;;;;19.88;11.45;;;9.40;99.90;;;;;;5075456;28;20084;-79
2023/03/21 08:18:32;;;;;;;23.02;12.38;;;9.40;99.90;;;;;;5076157;28;20044;-78
2023/03/21 08:20:58;;;;;;;22.85;11.50;;;10.00;99.90;;;;;;5075962;28;20051;-79
2023/03/21 08:23:24;;;;;;;21.23;12.45;;;9.40;99.90;;;;;;5076035;28;20361;-79
2023/03/21 08:25:54;;;;;;;22.73;11.27;;;9.50;99.90;;;;;;5076300;28;20048;-79
2023/03/21 08:28:21;;;;;;;22.75;12.65;;;9.50;99.90;;;;;;5075867;28;20037;-79
2023/03/21 08:30:47;;;;;;;21.77;11.35;;;9.40;99.90;;;;;;5074831;28;20083;-79
2023/03/21 08:33:13;;;;;;;23.17;11.25;;;9.50;99.90;;;;;;5075932;28;20045;-79
2023/03/21 08:35:39;;;;;;;21.25;12.15;;;9.40;99.90;;;;;;5075772;28;20048;-79
2023/03/21 08:38:05;;;;;;;21.35;11.07;;;9.50;99.90;;;;;;5075765;28;20140;-79
2023/03/21 08:40:31;;;;;;;19.15;11.35;;;9.50;99.90;;;;;;5075750;28;20052;-79
2023/03/21 08:42:57;;;;;;;22.38;11.45;;;9.60;99.90;;;;;;5075881;28;20154;-79
2023/03/21 08:45:23;;;;;;;21.38;11.43;;;9.50;99.90;;;;;;5075535;28;20041;-79
2023/03/21 08:47:49;;;;;;;21.55;12.05;;;9.50;99.90;;;;;;5074607;28;20052;-79
2023/03/21 08:50:18;;;;;;;23.52;11.43;;;9.60;99.90;;;;;;5075450;28;20056;-79
2023/03/21 08:52:44;;;;;;;21.35;11.32;;;9.60;99.90;;;;;;5075957;28;20369;-79
2023/03/21 08:55:10;;;;;;;22.90;12.43;;;9.70;99.90;;;;;;5075791;28;20051;-79
2023/03/21 08:57:36;;;;;;;21.55;11.95;;;9.80;99.90;;;;;;5075404;28;20045;-79
2023/03/21 09:00:11;;;;;;;20.42;10.73;;;9.90;99.90;;;;;;5075302;28;20041;-79
2023/03/21 09:02:37;;;;;;;23.52;12.25;;;9.80;99.90;;;;;;5075327;28;20040;-79
2023/03/21 09:05:04;;;;;;;20.30;10.95;;;9.80;99.90;;;;;;5074942;28;20426;-79
2023/03/21 09:07:33;;;;;;;26.40;11.60;;;9.80;99.90;;;;;;5075206;28;20051;-79
2023/03/21 09:09:59;;;;;;;25.05;10.93;;;9.80;99.90;;;;;;5074933;28;20489;-79
2023/03/21 09:12:25;;;;;;;21.02;10.93;;;9.80;99.90;;;;;;5075249;28;20079;-79
2023/03/21 09:14:52;;;;;;;21.37;10.93;;;9.70;99.90;;;;;;5074579;28;20040;-79
2023/03/21 09:17:18;;;;;;;24.48;10.55;;;9.80;99.90;;;;;;5074653;28;20102;-81
2023/03/21 09:19:46;;;;;;;21.35;9.70;;;9.80;99.90;;;;;;5074793;28;20496;-77
2023/03/21 09:22:16;;;;;;;21.52;10.73;;;9.80;99.90;;;;;;5074717;28;20056;-77
2023/03/21 09:24:46;;;;;;;22.55;11.18;;;9.80;99.90;;;;;;5074648;28;20049;-76
2023/03/21 09:27:12;;;;;;;22.55;11.90;;;9.90;99.90;;;;;;5074996;28;20053;-76
2023/03/21 09:29:42;;;;;;;23.45;10.43;;;9.90;99.90;;;;;;5072333;28;20056;-76
2023/03/21 09:32:08;;;;;;;24.30;10.57;;;9.90;99.90;;;;;;5074817;28;20082;-77
2023/03/21 09:34:35;;;;;;;23.55;10.80;;;9.90;99.90;;;;;;5073416;28;20420;-77
2023/03/21 09:37:02;;;;;;;23.05;11.32;;;9.90;99.90;;;;;;5074637;28;20127;-78
2023/03/21 09:39:28;;;;;;;20.42;9.85;;;10.00;99.90;;;;;;5073029;28;20507;-77
2023/03/21 09:42:16;;;;;;;22.30;10.68;;;10.00;99.90;;;;;;5074344;28;20040;-76
2023/03/21 09:45:01;;;;;;;;;;;10.00;99.90;;;;;;5074858;28;20142;-76
2023/03/21 09:47:36;;;;;;;19.67;10.32;;;10.00;99.90;;;;;;5089898;28;19920;-76
2023/03/21 09:50:19;;;;;;;21.58;9.73;;;10.00;99.90;;;;;;5094413;28;20052;-77
2023/03/21 09:52:54;;;;;;;19.33;9.80;;;10.10;99.90;;;;;;5094340;28;20079;-76
2023/03/21 09:55:29;;;;;;;21.77;10.98;;;10.10;99.90;;;;;;5094179;28;20048;-78
2023/03/21 09:58:11;;;;;;;18.88;9.88;;;10.20;99.90;;;;;;5094126;28;20472;-79
2023/03/21 10:00:42;;;;;;;20.77;10.18;;;10.20;99.90;;;;;;5094345;28;20043;-78
2023/03/21 10:03:24;;;;;;;21.10;11.45;;;10.20;99.90;;;;;;5094237;28;20047;-80
2023/03/21 10:06:00;;;;;;;21.38;10.85;;;10.30;99.90;;;;;;5094197;28;20488;-77
2023/03/21 10:08:38;;;;;;;26.88;10.88;;;10.40;99.90;;;;;;5094153;28;20051;-79
2023/03/21 10:11:22;;;;;;;22.25;11.18;;;10.40;99.90;;;;;;5093813;28;20036;-81
2023/03/21 10:13:56;;;;;;;21.77;10.70;;;10.40;99.90;;;;;;5093018;28;20132;-76
2023/03/21 10:16:31;;;;;;;21.27;11.23;;;10.40;99.90;;;;;;5092864;28;20089;-77
2023/03/21 10:19:01;;;;;;;21.08;11.43;;;10.40;99.90;;;;;;5093802;28;20552;-78
2023/03/21 10:21:28;;;;;;;22.88;11.15;;;10.30;99.90;;;;;;5094060;28;20093;-78
2023/03/21 10:23:56;;;;;;;21.65;10.88;;;10.30;99.90;;;;;;5093828;28;20044;-78
2023/03/21 10:26:26;;;;;;;23.95;12.27;;;10.50;99.90;;;;;;5092509;28;20048;-78
2023/03/21 10:28:53;;;;;;;20.58;10.43;;;10.20;99.90;;;;;;5093815;28;20084;-78
2023/03/21 10:31:24;;;;;;;20.85;10.95;;;10.30;99.90;;;;;;5093764;28;20188;-78
2023/03/21 10:33:53;;;;;;;19.70;11.45;;;10.20;99.90;;;;;;5093653;28;20524;-79
2023/03/21 10:36:28;;;;;;;21.98;11.45;;;10.30;99.90;;;;;;5093703;28;20369;-77
2023/03/21 10:39:26;;;;;;;20.20;10.93;;;10.30;99.90;;;;;;5093313;28;20053;-77
2023/03/21 10:41:52;;;;;;;16.88;10.25;;;10.30;99.90;;;;;;5093685;28;20047;-79
2023/03/21 10:44:18;;;;;;;20.98;11.02;;;10.70;99.90;;;;;;5093665;28;20042;-78
2023/03/21 10:46:56;;;;;;;18.48;10.65;;;10.40;99.90;;;;;;5093556;28;20079;-79
2023/03/21 10:49:22;;;;;;;20.92;10.32;;;10.50;99.90;;;;;;5093311;28;20418;-79
2023/03/21 10:51:51;;;;;;;18.30;10.60;;;10.50;99.90;;;;;;5093583;28;20072;-78
2023/03/21 10:54:20;;;;;;;17.52;10.30;;;10.40;99.90;;;;;;5092047;28;20047;-76
2023/03/21 10:56:56;;;;;;;17.77;10.45;;;10.50;99.90;;;;;;5093442;28;20032;-78
2023/03/21 10:59:24;;;;;;;18.25;10.55;;;10.70;99.90;;;;;;5093193;28;20052;-77
2023/03/21 11:01:54;;;;;;;21.33;10.55;;;10.50;99.90;;;;;;5092897;28;20545;-75
2023/03/21 11:04:25;;;;;;;20.23;10.63;;;10.50;99.90;;;;;;5092257;28;20153;-77
2023/03/21 11:06:53;;;;;;;16.92;10.43;;;10.60;99.90;;;;;;5093492;28;20077;-77
2023/03/21 11:09:23;;;;;;;22.52;10.60;;;10.80;99.90;;;;;;5093373;28;20552;-78
2023/03/21 11:11:53;;;;;;;20.55;9.65;;;10.70;99.90;;;;;;5093520;28;20040;-77
2023/03/21 11:14:31;;;;;;;15.73;9.48;;;10.90;99.90;;;;;;5093413;28;20142;-79
2023/03/21 11:16:57;;;;;;;20.95;9.48;;;10.70;99.90;;;;;;5092552;28;20051;-79
2023/03/21 11:19:31;;;;;;;18.67;9.95;;;10.70;99.90;;;;;;5093574;28;20044;-81
2023/03/21 11:22:05;;;;;;;17.30;9.63;;;11.00;99.90;;;;;;5092787;28;20488;-80
2023/03/21 11:24:32;;;;;;;21.15;10.35;;;10.80;99.90;;;;;;5093342;28;20056;-82
2023/03/21 11:26:58;;;;;;;18.60;8.50;;;10.70;99.90;;;;;;5091689;28;20514;-81
2023/03/21 11:29:39;;;;;;;13.20;7.13;;;10.80;99.90;;;;;;5093001;28;20040;-82
2023/03/21 11:32:21;;;;;;;14.65;9.05;;;10.90;99.90;;;;;;5092946;28;20507;-81
2023/03/21 11:35:12;;;;;;;12.52;8.05;;;10.80;99.90;;;;;;5075538;28;20399;-82
2023/03/21 11:37:40;;;;;;;11.18;7.38;;;10.80;99.90;;;;;;5092810;28;20047;-78
2023/03/21 11:40:20;;;;;;;11.88;6.65;;;10.90;99.90;;;;;;5092711;28;20403;-81
2023/03/21 11:42:48;;;;;;;13.02;7.20;;;11.00;99.90;;;;;;5092083;28;20052;-80
2023/03/21 11:45:29;;;;;;;12.13;7.03;;;11.20;99.90;;;;;;5092702;28;20048;-78
2023/03/21 11:47:59;;;;;;;13.93;6.90;;;11.40;99.90;;;;;;5092697;28;20052;-78
2023/03/21 11:50:33;;;;;;;10.35;6.38;;;11.30;99.90;;;;;;5092580;28;20063;-78
2023/03/21 11:53:19;;;;;;;12.57;6.82;;;11.40;99.90;;;;;;5095765;28;20040;-79
2023/03/21 11:56:09;;;;;;;14.45;6.45;;;11.40;99.90;;;;;;5096711;28;20062;-79
2023/03/21 11:59:14;;;;;;;11.25;6.32;;;11.40;99.90;;;;;;5096529;28;20419;-85
2023/03/21 12:01:58;;;;;;;11.93;6.60;;;11.50;99.90;;;;;;5096705;28;20048;-77
2023/03/21 12:05:02;;;;;;;14.98;6.05;;;11.50;99.90;;;;;;5096410;28;20043;-78
2023/03/21 12:08:00;;;;;;;14.63;6.18;;;11.60;99.90;;;;;;5096131;28;20054;-77
2023/03/21 12:10:54;;;;;;;11.85;5.65;;;11.50;99.90;;;;;;5075705;28;20145;-78
2023/03/21 12:13:45;;;;;;;11.50;6.20;;;11.50;99.90;;;;;;5093203;28;20118;-78
2023/03/21 12:16:23;;;;;;;13.50;6.68;;;11.50;99.90;;;;;;5086010;28;20511;-77
2023/03/21 12:19:12;;;;;;;8.07;5.03;;;11.60;99.90;;;;;;5090656;28;20066;-77
2023/03/21 12:21:42;;;;;;;11.68;6.28;;;11.60;99.90;;;;;;5096383;28;20484;-79
2023/03/21 12:24:18;;;;;;;9.80;6.10;;;11.70;99.90;;;;;;5096122;28;20051;-77
2023/03/21 12:27:05;;;;;;;14.57;5.97;;;11.70;99.90;;;;;;5096884;28;20128;-79
2023/03/21 12:29:36;;;;;;;12.15;5.90;;;11.80;99.90;;;;;;5102564;28;20120;-78
2023/03/21 12:32:34;;;;;;;13.00;5.75;;;11.90;99.90;;;;;;5075639;28;20388;-78
2023/03/21 12:35:09;;;;;;;9.00;5.97;;;12.00;99.90;;;;;;5074608;28;20052;-80
2023/03/21 12:37:52;;;;;;;11.20;5.65;;;12.00;99.90;;;;;;5075572;28;20052;-77
2023/03/21 12:41:08;;;;;;;10.10;5.20;;;12.00;99.90;;;;;;5093144;28;20112;-77
2023/03/21 12:43:54;;;;;;;10.45;5.65;;;12.10;99.90;;;;;;5069195;28;20063;-80
2023/03/21 12:46:42;;;;;;;9.48;5.68;;;12.10;99.90;;;;;;5095260;28;20048;-78
2023/03/21 12:49:15;;;;;;;12.75;5.72;;;12.20;99.90;;;;;;5095218;28;20048;-78
2023/03/21 12:51:46;;;;;;;10.80;5.07;;;12.20;99.90;;;;;;5094770;28;20097;-79
2023/03/21 12:54:27;;;;;;;10.90;5.95;;;12.30;99.90;;;;;;5096183;28;20051;-81
2023/03/21 12:57:00;;;;;;;11.88;5.65;;;12.30;99.90;;;;;;5077910;28;20086;-80